Avon, Massachusetts
Current Conditions -  °F | °C
As of 9:53 PM on Thursday 27 Nov 2014 (Local Time) from KOWD Reporting Station
Light Snow Light Snow  
Wind Chill: 26°   Ceiling: 3200
Heat Index: 31°   Visibility: 3mi
Dew Point: 28°   Wind: 5mph
Humidity: 89%   Direction: 320°NW
Pressure: 30.01"   Gusts: NA
Location:  42.13°N, 71.04°W
Report Text: KOWD 280253Z 32004KT 3SM -SN BR SCT008 SCT013 OVC032 M01/M02 A3001 RMK AO2 SLP161 P0000 60000 T10061022 50004
Loading
Personal Weather Stations






























Interactive Weather Map New forecast layout! Learn more

10-Day Weather Forecast

Advertisements
Track Severe Weather on mobile